Air Resources Laboratory banner image
Air Resources Laboratory web site National Oceanic and Atmospheric Administration (NOAA)

or metar


K4S1 211015Z AUTO 09003KT 1 1/4SM -RA OVC003 A3000 RMK AO1=
KAST 210955Z AUTO 00000KT 4SM BR OVC002 04/03 A2998 RMK AO2 VIS 1/2 RWY 08
 SLP153 T00390033=
KBKE 210953Z AUTO 00000KT 10SM CLR M01/M02 A3011 RMK AO2 SLP194 T10061022=
KBNO 210953Z AUTO 26003KT 10SM CLR M03/M09 A3013 RMK AO2 SLP193 T10281094=
KCVO 210956Z AUTO 00000KT 10SM CLR 04/03 A3000 RMK AO2 SLP159 T00390028=
KDLS 210953Z AUTO 00000KT 6SM BR CLR 06/03 A3008 RMK AO2 SLP186 T00560033=
KEUG 210954Z AUTO 00000KT 10SM CLR 04/01 A2999 RMK AO2 SLP155 T00440011=
KHIO 210953Z 00000KT 9SM CLR 04/03 A2999 RMK AO2 SLP154 T00390028 $=
KLGD 210956Z AUTO 17003KT 10SM CLR 02/M01 A3009 RMK AO2 SLP324 T00171011 FZRANO=
KLKV 210953Z AUTO 34005KT 10SM CLR M02/M06 A3013 RMK AO2 SLP670 T10221061
 FZRANO=
KLMT 210953Z AUTO 00000KT 10SM CLR M01/M05 A3010 RMK AO2 SLP173 T10061050=
KMEH 210956Z AUTO 00000KT 8SM CLR M01/M03 A3008 RMK AO2 SLP182 T10061028 $=
KMFR 210953Z AUTO 15003KT 10SM CLR 09/02 A3000 RMK AO2 SLP152 T00890017=
KMMV 210953Z AUTO 00000KT 3SM BR FEW002 04/03 A2999 RMK AO2 SLP154 T00390033 $=
KONO 210953Z AUTO 26003KT 8SM CLR 04/01 A3011 RMK AO2 SLP199 T00390006=
KONP 210955Z AUTO 11003KT 1/4SM FG VV002 05/05 A3001 RMK AO2=
KOTH 210956Z AUTO 14004KT 1/4SM FG OVC002 09/09 A3001 RMK AO2 SLP161 T00890089
 RVRNO PNO $=
KPDT 210953Z AUTO 12007KT 5SM BR CLR 04/03 A3005 RMK AO2 SLP171 T00440028=
KPDX 210953Z 00000KT 6SM BR CLR 07/06 A3000 RMK AO2 SLP159 T00720056=
KRBG 210953Z AUTO 00000KT 9SM CLR 08/05 A2999 RMK AO2 SLP155 T00830050=
KRDM 210956Z AUTO 14003KT 10SM CLR 03/M05 A3007 RMK AO2 SLP169 T00281050=
KREO 210952Z AUTO 12006KT 03/M02 A3010 RMK AO1 SLP180 T00281022=
KSLE 210956Z AUTO 25003KT 8SM CLR 07/05 A2998 RMK AO2 SLP152 T00670050=
KSPB 210953Z AUTO 00000KT 4SM BR CLR 05/04 A2999 RMK AO2 SLP155 T00500044=
KSXT 210956Z AUTO 33005KT 10SM CLR 17/M01 A3006 RMK AO2 SLP127 T01671011=
KTTD 210953Z AUTO 23003KT 5SM BR CLR 08/07 A2999 RMK AO2 SLP156 T00830067=
KUAO 210953Z AUTO 00000KT 2SM BR CLR 07/06 A3000 RMK AO2 SLP158 T00670061=